Click on the image to enlargeKlik op de webcam foto voor een grotere versie
Or click here
for the webcam videoo


Visit our other website:Website of another weatherstation



info button From: 23-09-2018 08:40    Until: 22:59 warning for: Rain Level: Yellow   Rain
Een lagedrukzone en daaraan verbonden actieve storingen trekken vandaag over ons land. We verwachten nog flink wat neerslag, zodat we van gisteren tot vanavond in vele streken totale neerslaghoeveelheden van 20 tot 40 mm kunnen bereiken. Une zone de basse pression et la perturbation active associee a celle-ci traversera notre pays aujourd?hui.Nous prevoyons encore des precipitations assez intenses en de nombreuses regions. Les quantites pourront atteindre 20 a 40 mm entre hier et ce soir. 

Select another period ( hide this area )

Units Period Custom range Directly to
Metric English Both
Daily Weekly Monthly Yearly
use both date-selectors for a custom range
previous Day
With this date

WeatherUnderground graphs for this period ( click here ) Loading the graph can take up to a minute!


Daily Summary for Sunday 23 September 2018
Time Temp. ( °C ) Dew pt. ( °C ) Wind ( km/h ) from Gust ( km/h ) Pressure ( hPa ) Humid.( % ) Rainrate ( cm )
High11,8 11,2 7,9 East ( 31/78 ) 9,7 1016,1 96 1,50
Average11,6 10,9 0,7 Calm #83/113 1,9 1012,5 95 1,40
Low11,5 10,6 -   0,0 1010,7 94 -
Daily Tabular details for Sunday 23 September 2018
Time Temp. ( °C ) Dew pt. ( °C ) Wind ( km/h ) from Gust ( km/h ) Pressure ( hPa ) Humid.( % ) Rainrate ( cm )
00:04 11,6 10,7   Calm   1016,1 94 0,50
00:09 11,5 10,6   Calm   1016,1 94 0,30
00:14 11,5 10,6   Calm   1016,1 94 0,30
00:19 11,5 10,6   Calm   1016,1 94 0,30
00:24 11,5 10,6   Calm   1016,1 94 -
00:29 11,5 10,6   Calm   1016,1 94 -
00:34 11,6 10,7   Calm 1,6 1015,8 94 -
00:38 11,6 10,7   Calm 1,6 1015,8 94 -
00:44 11,6 10,7   Calm 1,6 1015,5 94 -
00:48 11,6 10,7   Calm   1015,5 94 -
00:54 11,6 10,7   Calm   1015,5 94 0,30
00:59 11,6 10,8   Calm   1015,5 95 0,30
01:04 11,6 10,7   Calm   1015,1 94 0,30
01:09 11,6 10,7   Calm 1,6 1015,1 94 0,30
01:14 11,6 10,7   Calm 1,6 1015,1 94 0,30
01:19 11,5 10,6   Calm 1,6 1014,8 94 0,30
01:24 11,5 10,7   Calm   1014,8 95 0,30
01:29 11,5 10,6   Calm 3,2 1014,8 94 0,30
01:34 11,5 10,7   Calm 1,6 1014,4 95 0,30
01:39 11,5 10,7   Calm 1,6 1014,4 95 0,30
01:43 11,5 10,7   Calm 1,6 1014,4 95 0,30
01:49 11,5 10,7   Calm 1,6 1014,4 95 0,30
01:53 11,5 10,7   Calm 1,6 1014,1 95 -
01:59 11,5 10,7   Calm 3,2 1014,1 95 -
02:03 11,5 10,7   Calm   1014,1 95 -
02:09 11,6 10,8   Calm 1,6 1014,1 95 -
02:14 11,6 10,8   Calm 1,6 1014,1 95 -
02:19 11,6 10,8   Calm 3,2 1013,8 95 -
02:24 11,6 10,8   Calm   1014,1 95 0,30
02:29 11,6 10,8   Calm 3,2 1013,8 95 0,50
02:34 11,6 10,8   Calm   1013,8 95 0,50
02:39 11,7 10,9 1,4 East 1,6 1013,4 95 0,50
02:44 11,7 10,9   Calm 1,6 1013,4 95 0,50
02:49 11,7 10,9   Calm 1,6 1013,4 95 0,80
02:53 11,6 10,8   Calm 1,6 1013,4 95 0,80
02:59 11,6 10,8   Calm   1013,1 95 1,00
03:04 11,6 10,8   Calm   1013,4 95 1,00
03:09 11,7 10,9   Calm 1,6 1013,1 95 1,00
03:14 11,7 10,9   Calm 1,6 1013,1 95 1,30
03:19 11,7 10,9   Calm 1,6 1012,8 95 1,30
03:24 11,7 10,9   Calm   1012,8 95 1,30
03:29 11,7 10,9   Calm   1012,4 95 1,00
03:34 11,7 10,9   Calm   1012,4 95 1,30
03:39 11,7 10,9   Calm 3,2 1012,4 95 1,00
03:43 11,7 10,9   Calm   1012,4 95 1,00
03:49 11,7 10,9   Calm   1012,4 95 0,80
03:53 11,7 10,9 1,4 SE 3,2 1012,4 95 0,80
03:59 11,7 10,9   Calm   1012,4 95 0,80
04:03 11,8 11,0   Calm   1012,1 95 0,80
04:09 11,8 11,0   Calm   1012,1 95 1,00
04:14 11,7 10,9   Calm   1012,1 95 0,80
04:19 11,7 10,9   Calm 1,6 1012,1 95 0,80
04:24 11,8 11,0   Calm 3,2 1012,1 95 0,50
04:29 11,7 10,9 1,4 SE 3,2 1012,1 95 0,80
04:34 11,7 10,9 3,2 ENE 3,2 1012,1 95 0,80
04:39 11,7 10,9   Calm   1011,7 95 1,00
04:44 11,8 11,0   Calm 3,2 1011,7 95 1,00
04:49 11,7 10,9   Calm   1011,7 95 1,30
04:54 11,7 11,1 3,2 East 3,2 1011,7 96 1,50
04:59 11,7 10,9 3,2 East 3,2 1011,7 95 1,30
05:04 11,7 11,1 1,4 SE 1,6 1011,4 96 1,30
05:09 11,7 11,1 3,2 SE 3,2 1011,4 96 1,30
05:14 11,7 11,1   Calm   1011,4 96 1,30
05:19 11,8 11,2   Calm   1011,4 96 1,30
05:24 11,7 11,1   Calm 1,6 1011,4 96 1,50
05:29 11,7 11,1 1,4 ESE 1,6 1011,4 96 1,30
05:34 11,7 11,1   Calm 1,6 1011,1 96 1,00
05:39 11,7 11,1   Calm 1,6 1011,1 96 0,80
05:44 11,7 11,1   Calm 1,6 1011,1 96 0,80
05:49 11,7 11,1   Calm   1010,7 96 0,50
05:54 11,7 11,1   Calm 1,6 1010,7 96 0,50
05:59 11,7 11,1   Calm 1,6 1011,1 96 0,50
06:04 11,7 11,1   Calm   1010,7 96 0,50
06:09 11,7 11,1   Calm   1010,7 96 0,30
06:14 11,7 11,1   Calm   1010,7 96 0,30
06:19 11,8 11,2 1,4 SE 1,6 1011,1 96 0,30
06:24 11,7 11,1 1,4 ESE 3,2 1011,1 96 -
06:29 11,7 11,1 1,4 East 1,6 1011,1 96 -
06:34 11,7 11,1 1,4 East 1,6 1011,1 96 -
06:39 11,6 11,0 3,2 ENE 3,2 1011,4 96 -
06:44 11,6 11,0 3,2 East 3,2 1011,1 96 -
06:49 11,6 11,0 7,9 East 8,0 1011,1 96 -
06:54 11,6 11,0   Calm 3,2 1010,7 96 -
06:58 11,6 11,0   Calm 3,2 1010,7 96 -
07:04 11,6 11,0   Calm 1,6 1010,7 96 -
07:09 11,6 11,0   Calm 3,2 1010,7 96 -
07:14 11,6 11,0   Calm 1,6 1011,1 96 -
07:19 11,7 11,1 3,2 ENE 3,2 1011,1 96 -
07:24 11,6 11,0 6,4 NE 6,4 1011,1 96 -
07:29 11,6 11,0   Calm 1,6 1011,1 96 -
07:34 11,6 11,0 6,4 ESE 6,4 1011,1 96 -
07:39 11,6 11,0   Calm 1,6 1011,1 96 -
07:44 11,6 11,0 1,4 NE 6,4 1011,4 96 -
07:49 11,6 11,0 1,4 ENE 3,2 1011,1 96 -
07:54 11,6 11,0   Calm 6,4 1011,1 96 -
07:59 11,7 11,1 1,4 East 3,2 1011,1 96 -
08:04 11,6 11,0 3,2 NE 4,8 1011,1 96 -
08:09 11,6 11,0 4,7 East 9,7 1011,1 96 -
08:13 11,6 11,0 1,4 ENE 3,2 1011,1 96 -
08:19 11,6 11,0 1,4 East 8,0 1011,1 96 -
08:24 11,6 11,0 1,4 ESE 1,6 1011,1 96 -
08:29 11,6 11,0   Calm 3,2 1011,1 96 0,30
08:34 11,6 11,0   Calm 1,6 1011,1 96 0,30
08:39 11,6 11,0 1,4 East 1,6 1011,1 96 0,30
08:44 11,6 11,0   Calm   1010,7 96 0,30
08:49 11,6 11,0   Calm 3,2 1010,7 96 0,30
08:54 11,6 11,0   Calm   1011,1 96 0,30
08:59 11,6 11,0   Calm 3,2 1011,1 96 0,30
09:04 11,6 11,0 1,4 SE 1,6 1011,1 96 0,30
09:09 11,7 11,1 3,2 ESE 3,2 1011,4 96 0,50
09:14 11,7 11,1   Calm 3,2 1011,1 96 0,50
09:19 11,7 11,1   Calm 3,2 1010,7 96 0,50
09:24 11,7 11,1   Calm 1,6 1010,7 96 0,30
Daily Summary for Sunday 23 September 2018
Time Temp. ( °C ) Dew pt. ( °C ) Wind ( km/h ) from Gust ( km/h ) Pressure ( hPa ) Humid.( % ) Rainrate ( cm )
High11,8 11,2 7,9 East ( 31/78 ) 9,7 1016,1 96 1,50
Average11,6 10,9 0,7 Calm #83/113 1,9 1012,5 95 1,40
Low11,5 10,6 -   0,0 1010,7 94 -
Daily Tabular details for Sunday 23 September 2018
Time Temp. ( °C ) Dew pt. ( °C ) Wind ( km/h ) from Gust ( km/h ) Pressure ( hPa ) Humid.( % ) Rainrate ( cm )
00:04 11,6 10,7   Calm   1016,1 94 0,50
00:09 11,5 10,6   Calm   1016,1 94 0,30
00:14 11,5 10,6   Calm   1016,1 94 0,30
00:19 11,5 10,6   Calm   1016,1 94 0,30
00:24 11,5 10,6   Calm   1016,1 94 -
00:29 11,5 10,6   Calm   1016,1 94 -
00:34 11,6 10,7   Calm 1,6 1015,8 94 -
00:38 11,6 10,7   Calm 1,6 1015,8 94 -
00:44 11,6 10,7   Calm 1,6 1015,5 94 -
00:48 11,6 10,7   Calm   1015,5 94 -
00:54 11,6 10,7   Calm   1015,5 94 0,30
00:59 11,6 10,8   Calm   1015,5 95 0,30
01:04 11,6 10,7   Calm   1015,1 94 0,30
01:09 11,6 10,7   Calm 1,6 1015,1 94 0,30
01:14 11,6 10,7   Calm 1,6 1015,1 94 0,30
01:19 11,5 10,6   Calm 1,6 1014,8 94 0,30
01:24 11,5 10,7   Calm   1014,8 95 0,30
01:29 11,5 10,6   Calm 3,2 1014,8 94 0,30
01:34 11,5 10,7   Calm 1,6 1014,4 95 0,30
01:39 11,5 10,7   Calm 1,6 1014,4 95 0,30
01:43 11,5 10,7   Calm 1,6 1014,4 95 0,30
01:49 11,5 10,7   Calm 1,6 1014,4 95 0,30
01:53 11,5 10,7   Calm 1,6 1014,1 95 -
01:59 11,5 10,7   Calm 3,2 1014,1 95 -
02:03 11,5 10,7   Calm   1014,1 95 -
02:09 11,6 10,8   Calm 1,6 1014,1 95 -
02:14 11,6 10,8   Calm 1,6 1014,1 95 -
02:19 11,6 10,8   Calm 3,2 1013,8 95 -
02:24 11,6 10,8   Calm   1014,1 95 0,30
02:29 11,6 10,8   Calm 3,2 1013,8 95 0,50
02:34 11,6 10,8   Calm   1013,8 95 0,50
02:39 11,7 10,9 1,4 East 1,6 1013,4 95 0,50
02:44 11,7 10,9   Calm 1,6 1013,4 95 0,50
02:49 11,7 10,9   Calm 1,6 1013,4 95 0,80
02:53 11,6 10,8   Calm 1,6 1013,4 95 0,80
02:59 11,6 10,8   Calm   1013,1 95 1,00
03:04 11,6 10,8   Calm   1013,4 95 1,00
03:09 11,7 10,9   Calm 1,6 1013,1 95 1,00
03:14 11,7 10,9   Calm 1,6 1013,1 95 1,30
03:19 11,7 10,9   Calm 1,6 1012,8 95 1,30
03:24 11,7 10,9   Calm   1012,8 95 1,30
03:29 11,7 10,9   Calm   1012,4 95 1,00
03:34 11,7 10,9   Calm   1012,4 95 1,30
03:39 11,7 10,9   Calm 3,2 1012,4 95 1,00
03:43 11,7 10,9   Calm   1012,4 95 1,00
03:49 11,7 10,9   Calm   1012,4 95 0,80
03:53 11,7 10,9 1,4 SE 3,2 1012,4 95 0,80
03:59 11,7 10,9   Calm   1012,4 95 0,80
04:03 11,8 11,0   Calm   1012,1 95 0,80
04:09 11,8 11,0   Calm   1012,1 95 1,00
04:14 11,7 10,9   Calm   1012,1 95 0,80
04:19 11,7 10,9   Calm 1,6 1012,1 95 0,80
04:24 11,8 11,0   Calm 3,2 1012,1 95 0,50
04:29 11,7 10,9 1,4 SE 3,2 1012,1 95 0,80
04:34 11,7 10,9 3,2 ENE 3,2 1012,1 95 0,80
04:39 11,7 10,9   Calm   1011,7 95 1,00
04:44 11,8 11,0   Calm 3,2 1011,7 95 1,00
04:49 11,7 10,9   Calm   1011,7 95 1,30
04:54 11,7 11,1 3,2 East 3,2 1011,7 96 1,50
04:59 11,7 10,9 3,2 East 3,2 1011,7 95 1,30
05:04 11,7 11,1 1,4 SE 1,6 1011,4 96 1,30
05:09 11,7 11,1 3,2 SE 3,2 1011,4 96 1,30
05:14 11,7 11,1   Calm   1011,4 96 1,30
05:19 11,8 11,2   Calm   1011,4 96 1,30
05:24 11,7 11,1   Calm 1,6 1011,4 96 1,50
05:29 11,7 11,1 1,4 ESE 1,6 1011,4 96 1,30
05:34 11,7 11,1   Calm 1,6 1011,1 96 1,00
05:39 11,7 11,1   Calm 1,6 1011,1 96 0,80
05:44 11,7 11,1   Calm 1,6 1011,1 96 0,80
05:49 11,7 11,1   Calm   1010,7 96 0,50
05:54 11,7 11,1   Calm 1,6 1010,7 96 0,50
05:59 11,7 11,1   Calm 1,6 1011,1 96 0,50
06:04 11,7 11,1   Calm   1010,7 96 0,50
06:09 11,7 11,1   Calm   1010,7 96 0,30
06:14 11,7 11,1   Calm   1010,7 96 0,30
06:19 11,8 11,2 1,4 SE 1,6 1011,1 96 0,30
06:24 11,7 11,1 1,4 ESE 3,2 1011,1 96 -
06:29 11,7 11,1 1,4 East 1,6 1011,1 96 -
06:34 11,7 11,1 1,4 East 1,6 1011,1 96 -
06:39 11,6 11,0 3,2 ENE 3,2 1011,4 96 -
06:44 11,6 11,0 3,2 East 3,2 1011,1 96 -
06:49 11,6 11,0 7,9 East 8,0 1011,1 96 -
06:54 11,6 11,0   Calm 3,2 1010,7 96 -
06:58 11,6 11,0   Calm 3,2 1010,7 96 -
07:04 11,6 11,0   Calm 1,6 1010,7 96 -
07:09 11,6 11,0   Calm 3,2 1010,7 96 -
07:14 11,6 11,0   Calm 1,6 1011,1 96 -
07:19 11,7 11,1 3,2 ENE 3,2 1011,1 96 -
07:24 11,6 11,0 6,4 NE 6,4 1011,1 96 -
07:29 11,6 11,0   Calm 1,6 1011,1 96 -
07:34 11,6 11,0 6,4 ESE 6,4 1011,1 96 -
07:39 11,6 11,0   Calm 1,6 1011,1 96 -
07:44 11,6 11,0 1,4 NE 6,4 1011,4 96 -
07:49 11,6 11,0 1,4 ENE 3,2 1011,1 96 -
07:54 11,6 11,0   Calm 6,4 1011,1 96 -
07:59 11,7 11,1 1,4 East 3,2 1011,1 96 -
08:04 11,6 11,0 3,2 NE 4,8 1011,1 96 -
08:09 11,6 11,0 4,7 East 9,7 1011,1 96 -
08:13 11,6 11,0 1,4 ENE 3,2 1011,1 96 -
08:19 11,6 11,0 1,4 East 8,0 1011,1 96 -
08:24 11,6 11,0 1,4 ESE 1,6 1011,1 96 -
08:29 11,6 11,0   Calm 3,2 1011,1 96 0,30
08:34 11,6 11,0   Calm 1,6 1011,1 96 0,30
08:39 11,6 11,0 1,4 East 1,6 1011,1 96 0,30
08:44 11,6 11,0   Calm   1010,7 96 0,30
08:49 11,6 11,0   Calm 3,2 1010,7 96 0,30
08:54 11,6 11,0   Calm   1011,1 96 0,30
08:59 11,6 11,0   Calm 3,2 1011,1 96 0,30
09:04 11,6 11,0 1,4 SE 1,6 1011,1 96 0,30
09:09 11,7 11,1 3,2 ESE 3,2 1011,4 96 0,50
09:14 11,7 11,1   Calm 3,2 1011,1 96 0,50
09:19 11,7 11,1   Calm 3,2 1010,7 96 0,50
09:24 11,7 11,1   Calm 1,6 1010,7 96 0,30

Download your copy of this data-set  here

Our weather-data as stored at Weather Underground. Script developed by Jim McMurry. Adapted for the template by Leuven-Template.eu

You find our weather info also at:

UK Metoffice

WeatherCloud

European Weather Network

Weather Underground

Benelux Weather Network

AWEKAS

WeatherlinkIP

Citizen Weather Observer Program (CWOP)

HAMweather, WeatherForYou, PWS Weather

Equipment we use:

Weather-station
Davis VUE

Weather-program
Meteobridge

Provider
Robohost

Davis VUE

Meteobridge

Robohost